createdAt,value
2022-10-24T00:00:48.062Z,2.45
2022-10-24T00:03:16.471Z,1.85
2022-10-24T00:05:45.900Z,1.83
2022-10-24T00:08:13.776Z,1.55
2022-10-24T00:10:42.338Z,1.30
2022-10-24T00:13:11.762Z,1.50
2022-10-24T00:15:39.890Z,1.75
2022-10-24T00:18:07.525Z,1.60
2022-10-24T00:20:37.056Z,1.98
2022-10-24T00:23:05.201Z,1.55
2022-10-24T00:25:32.892Z,1.50
2022-10-24T00:28:00.621Z,1.63
2022-10-24T00:30:29.992Z,1.80
2022-10-24T00:32:57.609Z,2.00
2022-10-24T00:35:28.137Z,1.88
2022-10-24T00:37:55.776Z,2.08
2022-10-24T00:40:23.553Z,1.85
2022-10-24T00:42:51.402Z,1.98
2022-10-24T00:45:40.952Z,2.10
2022-10-24T00:48:17.093Z,1.70
2022-10-24T00:50:46.365Z,2.17
2022-10-24T00:53:15.581Z,1.58
2022-10-24T00:55:44.679Z,1.70
2022-10-24T00:58:13.342Z,1.77
2022-10-24T01:00:42.410Z,1.90
2022-10-24T01:03:11.766Z,2.08
2022-10-24T01:05:51.073Z,1.55
2022-10-24T01:08:29.773Z,1.80
2022-10-24T01:11:07.668Z,1.38
2022-10-24T01:13:44.293Z,1.80
2022-10-24T01:16:16.797Z,1.48
2022-10-24T01:18:49.763Z,1.50
2022-10-24T01:21:29.645Z,1.60
2022-10-24T01:24:33.380Z,1.75
2022-10-24T01:27:29.260Z,2.53
2022-10-24T01:30:05.904Z,2.40
2022-10-24T01:32:41.083Z,2.40
2022-10-24T01:35:21.678Z,1.70
2022-10-24T01:37:55.759Z,1.83
2022-10-24T01:40:28.401Z,1.50
2022-10-24T01:43:00.869Z,1.92
2022-10-24T01:45:34.128Z,2.50
2022-10-24T01:48:06.894Z,1.77
2022-10-24T01:50:38.653Z,2.05
2022-10-24T01:53:07.333Z,2.40
2022-10-24T01:55:35.265Z,1.90
2022-10-24T01:58:02.947Z,2.38
2022-10-24T02:00:32.158Z,2.78
2022-10-24T02:03:02.886Z,2.33
2022-10-24T02:05:35.270Z,2.17
2022-10-24T02:08:07.048Z,1.85
2022-10-24T02:10:41.443Z,2.15
2022-10-24T02:13:14.754Z,1.88
2022-10-24T02:15:49.781Z,1.92
2022-10-24T02:18:17.740Z,1.50
2022-10-24T02:20:54.477Z,2.47
2022-10-24T02:23:27.602Z,1.90
2022-10-24T02:26:00.029Z,2.05
2022-10-24T02:28:34.799Z,2.25
2022-10-24T02:31:09.664Z,2.13
2022-10-24T02:33:40.722Z,1.85
2022-10-24T02:36:11.417Z,2.45
2022-10-24T02:38:42.767Z,2.17
2022-10-24T02:41:15.781Z,2.00
2022-10-24T02:43:45.343Z,1.88
2022-10-24T02:46:15.422Z,1.90
2022-10-24T02:48:48.378Z,1.98
2022-10-24T02:51:18.304Z,1.80
2022-10-24T02:53:46.028Z,1.63
2022-10-24T02:56:13.871Z,2.20
2022-10-24T02:58:41.623Z,2.10
2022-10-24T03:01:09.724Z,2.33
2022-10-24T03:03:38.820Z,2.75
2022-10-24T03:06:06.871Z,2.00
2022-10-24T03:08:34.655Z,1.80
2022-10-24T03:11:02.317Z,2.22
2022-10-24T03:13:29.987Z,2.42
2022-10-24T03:15:57.689Z,2.03
2022-10-24T03:18:25.501Z,2.17
2022-10-24T03:20:54.501Z,1.80
2022-10-24T03:23:22.587Z,2.42
2022-10-24T03:25:50.204Z,2.22
2022-10-24T03:28:17.822Z,1.70
2022-10-24T03:30:45.462Z,2.22
2022-10-24T03:33:13.135Z,2.13
2022-10-24T03:35:40.760Z,2.85
2022-10-24T03:38:09.800Z,1.80
2022-10-24T03:40:38.629Z,2.75
2022-10-24T03:43:06.389Z,1.80
2022-10-24T03:45:33.980Z,2.33
2022-10-24T03:48:01.675Z,2.55
2022-10-24T03:50:29.303Z,2.78
2022-10-24T03:52:56.981Z,2.55
2022-10-24T03:55:26.489Z,2.95
2022-10-24T03:57:54.499Z,2.55
2022-10-24T04:00:22.803Z,2.53
2022-10-24T04:02:51.313Z,2.20
2022-10-24T04:05:19.057Z,3.03
2022-10-24T04:07:47.054Z,2.17
2022-10-24T04:10:14.992Z,2.17
2022-10-24T04:12:44.076Z,2.97
2022-10-24T04:15:12.293Z,2.88
2022-10-24T04:17:40.051Z,3.05
2022-10-24T04:20:08.723Z,4.60
2022-10-24T04:22:36.436Z,3.65
2022-10-24T04:25:04.598Z,3.40
2022-10-24T04:27:32.262Z,3.17
2022-10-24T04:30:01.281Z,4.07
2022-10-24T04:32:28.923Z,4.13
2022-10-24T04:34:56.567Z,3.20
2022-10-24T04:37:24.185Z,3.40
2022-10-24T04:39:53.682Z,2.67
2022-10-24T04:42:21.377Z,2.38
2022-10-24T04:44:49.011Z,2.17
2022-10-24T04:49:51.223Z,2.30
2022-10-24T04:52:18.886Z,3.05
2022-10-24T04:54:46.527Z,2.72
2022-10-24T04:57:14.170Z,2.38
2022-10-24T04:59:41.849Z,6.25
2022-10-24T05:02:09.552Z,4.22
2022-10-24T05:04:38.652Z,3.22
2022-10-24T05:07:06.387Z,2.60
2022-10-24T05:09:34.399Z,2.47
2022-10-24T05:12:02.135Z,2.38
2022-10-24T05:14:29.966Z,2.40
2022-10-24T05:16:57.611Z,2.78
2022-10-24T05:19:25.341Z,2.00
2022-10-24T05:21:54.330Z,2.50
2022-10-24T05:24:21.997Z,2.60
2022-10-24T05:26:49.590Z,2.70
2022-10-24T05:29:17.238Z,2.17
2022-10-24T05:31:44.849Z,2.40
2022-10-24T05:34:12.509Z,3.05
2022-10-24T05:36:40.164Z,2.10
2022-10-24T05:39:09.214Z,4.10
2022-10-24T05:41:36.894Z,2.17
2022-10-24T05:44:05.167Z,2.08
2022-10-24T05:46:32.943Z,2.63
2022-10-24T05:49:00.768Z,1.90
2022-10-24T05:51:28.520Z,2.55
2022-10-24T05:53:56.190Z,2.72
2022-10-24T05:56:25.223Z,2.30
2022-10-24T05:58:52.877Z,2.40
2022-10-24T06:01:20.596Z,2.33
2022-10-24T06:03:48.330Z,2.22
2022-10-24T06:06:15.990Z,2.58
2022-10-24T06:08:43.679Z,2.85
2022-10-24T06:11:11.977Z,3.00
2022-10-24T06:13:41.411Z,2.70
2022-10-24T06:16:10.499Z,3.97
2022-10-24T06:18:40.777Z,3.35
2022-10-24T06:21:10.125Z,2.65
2022-10-24T06:23:37.980Z,2.75
2022-10-24T06:26:09.930Z,2.88
2022-10-24T06:28:38.143Z,2.47
2022-10-24T06:31:08.383Z,2.67
2022-10-24T06:33:36.559Z,2.72
2022-10-24T06:36:07.748Z,2.33
2022-10-24T06:38:35.674Z,2.70
2022-10-24T06:41:07.356Z,1.95
2022-10-24T06:43:35.712Z,2.58
2022-10-24T06:46:08.176Z,2.05
2022-10-24T06:48:36.959Z,2.38
2022-10-24T06:51:05.183Z,2.30
2022-10-24T06:53:33.434Z,2.80
2022-10-24T06:56:02.685Z,2.90
2022-10-24T06:58:32.682Z,2.33
2022-10-24T07:01:01.167Z,2.90
2022-10-24T07:03:30.480Z,2.55
2022-10-24T07:05:58.129Z,2.70
2022-10-24T07:08:25.834Z,2.38
2022-10-24T07:10:53.636Z,2.13
2022-10-24T07:13:21.322Z,2.42
2022-10-24T07:15:49.253Z,2.50
2022-10-24T07:18:17.569Z,1.98
2022-10-24T07:20:47.008Z,1.80
2022-10-24T07:23:15.327Z,2.55
2022-10-24T07:25:43.728Z,2.08
2022-10-24T07:28:12.353Z,2.55
2022-10-24T07:30:40.624Z,1.80
2022-10-24T07:33:08.524Z,2.03
2022-10-24T07:35:36.513Z,2.88
2022-10-24T07:38:05.903Z,1.88
2022-10-24T07:40:34.014Z,3.17
2022-10-24T07:43:01.968Z,2.03
2022-10-24T07:45:32.359Z,1.65
2022-10-24T07:48:00.823Z,2.33
2022-10-24T07:50:28.639Z,2.70
2022-10-24T07:52:56.692Z,2.47
2022-10-24T07:55:25.799Z,2.40
2022-10-24T07:57:54.063Z,3.13
2022-10-24T08:00:22.556Z,2.38
2022-10-24T08:05:23.157Z,1.75
2022-10-24T08:07:56.023Z,2.03
2022-10-24T08:10:29.562Z,2.03
2022-10-24T08:12:57.249Z,1.77
2022-10-24T08:15:27.616Z,2.22
2022-10-24T08:17:55.497Z,2.05
2022-10-24T08:20:26.143Z,1.65
2022-10-24T08:22:53.858Z,2.85
2022-10-24T08:25:22.169Z,1.83
2022-10-24T08:27:51.161Z,2.50
2022-10-24T08:30:20.299Z,1.60
2022-10-24T08:32:48.091Z,2.03
2022-10-24T08:35:17.600Z,1.88
2022-10-24T08:37:45.439Z,1.63
2022-10-24T08:40:16.710Z,1.92
2022-10-24T08:42:45.128Z,2.70
2022-10-24T08:45:20.164Z,2.13
2022-10-24T08:47:54.444Z,2.08
2022-10-24T08:50:25.167Z,2.45
2022-10-24T08:52:59.209Z,1.63
2022-10-24T08:55:48.315Z,1.98
2022-10-24T08:58:20.882Z,2.30
2022-10-24T09:00:53.355Z,1.67
2022-10-24T09:03:37.144Z,2.47
2022-10-24T09:06:17.214Z,1.65
2022-10-24T09:08:52.251Z,1.67
2022-10-24T09:11:27.090Z,1.52
2022-10-24T09:13:55.149Z,2.38
2022-10-24T09:16:25.390Z,2.42
2022-10-24T09:18:56.251Z,3.13
2022-10-24T09:21:24.772Z,2.65
2022-10-24T09:23:53.634Z,2.20
2022-10-24T09:26:27.432Z,1.50
2022-10-24T09:28:56.965Z,1.30
2022-10-24T09:31:28.044Z,1.80
2022-10-24T09:33:56.531Z,2.55
2022-10-24T09:36:25.322Z,1.33
2022-10-24T09:38:53.340Z,1.90
2022-10-24T09:41:24.378Z,1.98
2022-10-24T09:43:55.976Z,1.83
2022-10-24T09:46:28.309Z,2.35
2022-10-24T09:48:58.565Z,1.77
2022-10-24T09:51:36.178Z,1.70
2022-10-24T09:54:23.854Z,2.65
2022-10-24T09:56:57.144Z,1.45
2022-10-24T09:59:33.547Z,1.90
2022-10-24T10:02:20.200Z,1.48
2022-10-24T10:04:49.543Z,2.33
2022-10-24T10:07:20.161Z,2.55
2022-10-24T10:09:55.625Z,1.45
2022-10-24T10:12:32.408Z,1.33
2022-10-24T10:15:02.460Z,1.52
2022-10-24T10:17:32.890Z,1.80
2022-10-24T10:20:00.673Z,1.48
2022-10-24T10:22:31.687Z,1.85
2022-10-24T10:25:00.662Z,2.45
2022-10-24T10:27:34.267Z,1.60
2022-10-24T10:30:20.747Z,1.38
2022-10-24T10:33:01.830Z,1.20
2022-10-24T10:35:38.867Z,2.08
2022-10-24T10:38:20.597Z,1.70
2022-10-24T10:40:53.563Z,0.95
2022-10-24T10:43:31.269Z,1.95
2022-10-24T10:46:14.455Z,2.20
2022-10-24T10:48:56.265Z,1.75
2022-10-24T10:51:31.452Z,1.58
2022-10-24T10:54:07.708Z,1.33
2022-10-24T10:56:43.858Z,1.55
2022-10-24T10:59:29.386Z,1.05
2022-10-24T11:02:03.931Z,1.27
2022-10-24T11:04:40.812Z,1.92
2022-10-24T11:07:17.537Z,1.70
2022-10-24T11:09:48.937Z,1.70
2022-10-24T11:12:21.911Z,2.13
2022-10-24T11:14:56.142Z,2.05
2022-10-24T11:17:28.719Z,2.20
2022-10-24T11:20:06.163Z,1.58
2022-10-24T11:22:41.266Z,1.27
2022-10-24T11:25:21.586Z,1.23
2022-10-24T11:27:54.254Z,0.93
2022-10-24T11:30:23.018Z,0.77
2022-10-24T11:32:55.648Z,0.85
2022-10-24T11:35:30.200Z,2.00
2022-10-24T11:38:02.853Z,1.50
2022-10-24T11:40:32.649Z,0.75
2022-10-24T11:43:14.813Z,0.82
2022-10-24T11:45:50.149Z,0.50
2022-10-24T11:48:23.167Z,0.80
2022-10-24T11:51:02.999Z,0.82
2022-10-24T11:53:56.578Z,1.90
2022-10-24T11:56:33.714Z,1.02
2022-10-24T11:59:04.685Z,0.88
2022-10-24T12:02:17.578Z,1.33
2022-10-24T12:05:23.172Z,0.65
2022-10-24T12:08:23.180Z,0.80
2022-10-24T12:11:16.542Z,1.00
2022-10-24T12:14:19.120Z,0.65
2022-10-24T12:17:00.397Z,0.80
2022-10-24T12:19:29.284Z,1.35
2022-10-24T12:22:00.125Z,0.60
2022-10-24T12:24:32.899Z,1.30
2022-10-24T12:27:02.876Z,0.85
2022-10-24T12:29:33.554Z,0.60
2022-10-24T12:32:21.849Z,0.63
2022-10-24T12:35:25.172Z,0.80
2022-10-24T12:37:49.046Z,1.38
2022-10-24T12:40:52.003Z,1.17
2022-10-24T12:43:32.560Z,1.50
2022-10-24T12:46:01.947Z,0.70
2022-10-24T12:48:37.208Z,1.10
2022-10-24T12:51:25.923Z,0.60
2022-10-24T12:54:06.399Z,0.88
2022-10-24T12:56:35.835Z,0.95
2022-10-24T12:59:17.023Z,1.52
2022-10-24T13:01:45.767Z,0.88
2022-10-24T13:04:55.249Z,0.82
2022-10-24T13:07:36.125Z,0.57
2022-10-24T13:10:20.302Z,0.73
2022-10-24T13:13:05.986Z,1.10
2022-10-24T13:15:44.925Z,0.88
2022-10-24T13:18:28.107Z,0.75
2022-10-24T13:21:15.201Z,0.90
2022-10-24T13:23:44.607Z,0.55
2022-10-24T13:26:37.914Z,0.73
2022-10-24T13:29:14.096Z,1.23
2022-10-24T13:31:50.726Z,0.80
2022-10-24T13:34:22.909Z,0.90
2022-10-24T13:36:54.538Z,1.25
2022-10-24T13:39:27.885Z,0.82
2022-10-24T13:42:00.481Z,1.10
2022-10-24T13:44:34.450Z,0.73
2022-10-24T13:47:14.639Z,1.02
2022-10-24T13:49:50.530Z,0.73
2022-10-24T13:52:23.529Z,0.90
2022-10-24T13:54:57.504Z,0.22
2022-10-24T13:57:31.161Z,0.52
2022-10-24T14:00:01.710Z,1.20
2022-10-24T14:02:33.700Z,0.60
2022-10-24T14:05:03.618Z,0.60
2022-10-24T14:07:33.605Z,0.68
2022-10-24T14:10:09.209Z,0.68
2022-10-24T14:12:40.209Z,0.90
2022-10-24T14:15:18.363Z,0.88
2022-10-24T14:17:55.526Z,0.73
2022-10-24T14:20:25.170Z,0.80
2022-10-24T14:22:53.180Z,0.68
2022-10-24T14:25:26.762Z,0.60
2022-10-24T14:27:56.638Z,0.80
2022-10-24T14:30:32.087Z,1.45
2022-10-24T14:33:07.627Z,0.70
2022-10-24T14:35:35.819Z,1.00
2022-10-24T14:38:07.465Z,0.90
2022-10-24T14:40:37.735Z,0.50
2022-10-24T14:43:05.820Z,0.50
2022-10-24T14:45:34.872Z,1.25
2022-10-24T14:48:03.331Z,1.10
2022-10-24T14:50:36.054Z,0.60
2022-10-24T14:53:04.299Z,0.80
2022-10-24T14:55:32.846Z,1.08
2022-10-24T14:58:00.548Z,1.13
2022-10-24T15:00:40.898Z,0.73
2022-10-24T15:03:11.491Z,1.50
2022-10-24T15:05:40.707Z,1.00
2022-10-24T15:08:28.230Z,1.15
2022-10-24T15:11:15.730Z,0.88
2022-10-24T15:14:00.028Z,1.00
2022-10-24T15:16:37.528Z,1.92
2022-10-24T15:19:13.554Z,0.80
2022-10-24T15:21:47.209Z,1.02
2022-10-24T15:24:22.938Z,1.38
2022-10-24T15:26:51.220Z,1.55
2022-10-24T15:29:21.497Z,0.80
2022-10-24T15:31:51.792Z,0.70
2022-10-24T15:34:22.821Z,1.13
2022-10-24T15:36:53.192Z,2.53
2022-10-24T15:39:24.240Z,1.10
2022-10-24T15:41:52.330Z,1.02
2022-10-24T15:44:22.177Z,1.55
2022-10-24T15:46:50.457Z,1.25
2022-10-24T15:49:18.351Z,3.38
2022-10-24T15:51:50.360Z,6.55
2022-10-24T15:54:20.727Z,4.55
2022-10-24T15:56:48.794Z,3.38
2022-10-24T15:59:17.543Z,4.10
2022-10-24T16:01:48.960Z,1.80
2022-10-24T16:04:17.777Z,1.60
2022-10-24T16:06:46.841Z,1.83
2022-10-24T16:09:16.460Z,3.38
2022-10-24T16:11:44.211Z,2.35
2022-10-24T16:14:15.078Z,1.15
2022-10-24T16:16:43.158Z,1.63
2022-10-24T16:19:11.493Z,1.30
2022-10-24T16:21:40.807Z,1.48
2022-10-24T16:24:12.440Z,1.52
2022-10-24T16:26:40.946Z,1.20
2022-10-24T16:29:08.840Z,1.58
2022-10-24T16:31:36.762Z,1.35
2022-10-24T16:34:07.205Z,1.45
2022-10-24T16:36:34.908Z,1.40
2022-10-24T16:39:02.729Z,1.38
2022-10-24T16:41:31.698Z,2.42
2022-10-24T16:43:59.830Z,3.83
2022-10-24T16:46:28.829Z,3.30
2022-10-24T16:48:56.780Z,1.23
2022-10-24T16:51:31.717Z,1.90
2022-10-24T16:53:59.673Z,2.40
2022-10-24T16:56:27.773Z,1.88
2022-10-24T16:58:56.968Z,1.52
2022-10-24T17:01:27.404Z,1.75
2022-10-24T17:03:55.299Z,2.67
2022-10-24T17:06:23.080Z,2.97
2022-10-24T17:08:51.405Z,6.80
2022-10-24T17:11:44.270Z,4.97
2022-10-24T17:16:41.970Z,3.28
2022-10-24T17:19:17.760Z,2.45
2022-10-24T17:21:47.842Z,2.90
2022-10-24T17:24:18.530Z,2.70
2022-10-24T17:26:46.555Z,1.77
2022-10-24T17:29:23.065Z,2.33
2022-10-24T17:31:50.920Z,1.52
2022-10-24T17:34:18.987Z,2.97
2022-10-24T17:36:50.739Z,1.90
2022-10-24T17:39:26.426Z,2.38
2022-10-24T17:41:54.669Z,3.10
2022-10-24T17:44:24.379Z,1.92
2022-10-24T17:46:55.896Z,2.00
2022-10-24T17:49:26.324Z,1.27
2022-10-24T17:51:54.000Z,2.17
2022-10-24T17:54:21.653Z,1.50
2022-10-24T17:56:49.322Z,1.27
2022-10-24T17:59:17.031Z,1.40
2022-10-24T18:01:46.189Z,1.88
2022-10-24T18:04:14.162Z,2.78
2022-10-24T18:06:43.376Z,1.98
2022-10-24T18:09:12.015Z,1.90
2022-10-24T18:11:39.853Z,1.98
2022-10-24T18:14:07.741Z,1.08
2022-10-24T18:16:36.999Z,1.70
2022-10-24T18:19:06.890Z,1.58
2022-10-24T18:21:34.602Z,1.92
2022-10-24T18:24:02.371Z,1.13
2022-10-24T18:26:30.025Z,2.17
2022-10-24T18:28:57.996Z,1.65
2022-10-24T18:31:27.829Z,1.17
2022-10-24T18:37:24.365Z,1.83
2022-10-24T18:40:03.966Z,1.25
2022-10-24T18:42:53.148Z,0.93
2022-10-24T18:46:02.686Z,1.67
2022-10-24T19:08:27.030Z,1.52
2022-10-24T19:11:41.314Z,1.00
2022-10-24T19:18:11.153Z,0.82
2022-10-24T19:24:51.066Z,1.75
2022-10-24T19:27:49.699Z,0.70
2022-10-24T19:30:55.637Z,1.90
2022-10-24T19:33:35.255Z,1.67
2022-10-24T19:39:42.583Z,2.30
2022-10-24T19:42:25.905Z,1.10
2022-10-24T19:45:50.126Z,1.05
2022-10-24T19:56:46.590Z,1.75
2022-10-24T20:04:02.048Z,1.30
2022-10-24T20:07:04.283Z,0.90
2022-10-24T20:10:05.169Z,1.13
2022-10-24T20:12:42.091Z,2.72
2022-10-24T20:15:34.340Z,6.20
2022-10-24T20:21:31.185Z,2.75
2022-10-24T20:25:18.965Z,5.38
2022-10-24T20:48:23.381Z,1.80
2022-10-24T21:41:45.019Z,0.93
2022-10-24T21:44:14.455Z,1.20
2022-10-24T21:46:42.678Z,1.10
2022-10-24T21:49:11.945Z,1.70
2022-10-24T21:51:41.345Z,1.35
2022-10-24T21:54:16.784Z,1.50
2022-10-24T21:56:46.483Z,1.58
2022-10-24T21:59:16.665Z,1.42
2022-10-24T22:01:46.841Z,0.88
2022-10-24T22:04:16.437Z,1.23
2022-10-24T22:06:45.781Z,2.00
2022-10-24T22:09:16.263Z,0.95
2022-10-24T22:11:46.829Z,1.17
2022-10-24T22:14:17.021Z,1.05
2022-10-24T22:16:45.578Z,1.15
2022-10-24T22:19:14.646Z,1.40
2022-10-24T22:21:45.756Z,1.73
2022-10-24T22:24:15.924Z,1.15
2022-10-24T22:26:43.994Z,1.35
2022-10-24T22:29:15.922Z,1.33
2022-10-24T22:31:44.469Z,1.85
2022-10-24T22:34:17.251Z,1.20
2022-10-24T22:37:00.786Z,0.95
2022-10-24T22:39:29.084Z,1.27
2022-10-24T22:41:57.319Z,1.23
2022-10-24T22:44:27.157Z,0.85
2022-10-24T22:47:06.549Z,1.05
2022-10-24T22:49:45.130Z,0.90
2022-10-24T22:52:13.727Z,1.38
2022-10-24T22:54:42.086Z,1.50
2022-10-24T22:57:10.532Z,1.13
2022-10-24T22:59:40.149Z,0.82
2022-10-24T23:02:23.347Z,1.13
2022-10-24T23:05:00.407Z,1.00
2022-10-24T23:07:35.777Z,0.90
2022-10-24T23:10:03.615Z,1.00
2022-10-24T23:12:31.847Z,1.25
2022-10-24T23:15:01.366Z,0.85
2022-10-24T23:17:32.747Z,1.20
2022-10-24T23:20:01.324Z,0.75
2022-10-24T23:22:30.712Z,1.10
2022-10-24T23:25:00.393Z,1.77
2022-10-24T23:27:34.306Z,0.52
2022-10-24T23:30:06.807Z,1.30
2022-10-24T23:32:38.903Z,0.90
2022-10-24T23:35:08.588Z,0.90
2022-10-24T23:37:38.261Z,1.65
2022-10-24T23:40:22.342Z,0.60
2022-10-24T23:42:51.414Z,0.65
2022-10-24T23:45:23.306Z,0.73
2022-10-24T23:48:06.090Z,0.55
2022-10-24T23:50:38.917Z,1.52
2022-10-24T23:53:20.636Z,0.65
2022-10-24T23:55:49.589Z,1.25
2022-10-24T23:58:18.990Z,1.10
